sensor_id;sensor_type;location;lat;lon;timestamp;P1;durP1;ratioP1;P2;durP2;ratioP2
3155;SDS011;1588;50.892;7.082;2023-10-09T00:00:56;18.73;;;8.50;;
3155;SDS011;1588;50.892;7.082;2023-10-09T00:06:07;28.77;;;8.60;;
3155;SDS011;1588;50.892;7.082;2023-10-09T00:11:13;17.20;;;8.17;;
3155;SDS011;1588;50.892;7.082;2023-10-09T00:16:17;18.40;;;8.80;;
3155;SDS011;1588;50.892;7.082;2023-10-09T00:21:34;35.77;;;9.20;;
3155;SDS011;1588;50.892;7.082;2023-10-09T00:26:39;22.47;;;9.07;;
3155;SDS011;1588;50.892;7.082;2023-10-09T00:31:53;20.07;;;9.13;;
3155;SDS011;1588;50.892;7.082;2023-10-09T00:37:18;17.33;;;7.53;;
3155;SDS011;1588;50.892;7.082;2023-10-09T00:42:27;15.07;;;7.67;;
3155;SDS011;1588;50.892;7.082;2023-10-09T00:47:30;19.37;;;8.73;;
3155;SDS011;1588;50.892;7.082;2023-10-09T00:52:39;27.03;;;9.53;;
3155;SDS011;1588;50.892;7.082;2023-10-09T00:57:48;16.23;;;7.60;;
3155;SDS011;1588;50.892;7.082;2023-10-09T01:03:00;18.27;;;7.53;;
3155;SDS011;1588;50.892;7.082;2023-10-09T01:08:17;25.73;;;7.90;;
3155;SDS011;1588;50.892;7.082;2023-10-09T01:13:29;21.43;;;8.13;;
3155;SDS011;1588;50.892;7.082;2023-10-09T01:18:53;19.03;;;7.80;;
3155;SDS011;1588;50.892;7.082;2023-10-09T01:23:59;26.47;;;8.30;;
3155;SDS011;1588;50.892;7.082;2023-10-09T01:29:04;19.00;;;8.10;;
3155;SDS011;1588;50.892;7.082;2023-10-09T01:34:11;13.27;;;6.90;;
3155;SDS011;1588;50.892;7.082;2023-10-09T01:39:17;20.57;;;8.03;;
3155;SDS011;1588;50.892;7.082;2023-10-09T01:44:29;17.70;;;7.60;;
3155;SDS011;1588;50.892;7.082;2023-10-09T01:49:35;21.33;;;8.40;;
3155;SDS011;1588;50.892;7.082;2023-10-09T01:54:43;21.07;;;8.03;;
3155;SDS011;1588;50.892;7.082;2023-10-09T01:59:49;19.67;;;7.77;;
3155;SDS011;1588;50.892;7.082;2023-10-09T02:04:54;16.40;;;7.67;;
3155;SDS011;1588;50.892;7.082;2023-10-09T02:10:11;17.27;;;7.93;;
3155;SDS011;1588;50.892;7.082;2023-10-09T02:15:26;17.40;;;7.70;;
3155;SDS011;1588;50.892;7.082;2023-10-09T02:21:04;15.73;;;7.13;;
3155;SDS011;1588;50.892;7.082;2023-10-09T02:26:30;25.60;;;7.87;;
3155;SDS011;1588;50.892;7.082;2023-10-09T02:31:55;23.67;;;9.17;;
3155;SDS011;1588;50.892;7.082;2023-10-09T02:37:07;21.50;;;8.17;;
3155;SDS011;1588;50.892;7.082;2023-10-09T02:42:14;15.90;;;7.33;;
3155;SDS011;1588;50.892;7.082;2023-10-09T02:47:26;20.37;;;8.13;;
3155;SDS011;1588;50.892;7.082;2023-10-09T02:52:32;14.70;;;6.93;;
3155;SDS011;1588;50.892;7.082;2023-10-09T02:57:42;24.27;;;8.13;;
3155;SDS011;1588;50.892;7.082;2023-10-09T03:02:45;18.63;;;7.00;;
3155;SDS011;1588;50.892;7.082;2023-10-09T03:07:50;15.83;;;7.27;;
3155;SDS011;1588;50.892;7.082;2023-10-09T03:12:55;17.87;;;6.73;;
3155;SDS011;1588;50.892;7.082;2023-10-09T03:18:00;17.00;;;7.53;;
3155;SDS011;1588;50.892;7.082;2023-10-09T03:23:03;16.33;;;7.90;;
3155;SDS011;1588;50.892;7.082;2023-10-09T03:28:11;16.70;;;6.97;;
3155;SDS011;1588;50.892;7.082;2023-10-09T03:33:23;13.97;;;7.40;;
3155;SDS011;1588;50.892;7.082;2023-10-09T03:38:25;14.47;;;5.80;;
3155;SDS011;1588;50.892;7.082;2023-10-09T03:43:31;15.60;;;7.53;;
3155;SDS011;1588;50.892;7.082;2023-10-09T03:48:38;18.07;;;7.27;;
3155;SDS011;1588;50.892;7.082;2023-10-09T03:53:43;22.50;;;7.87;;
3155;SDS011;1588;50.892;7.082;2023-10-09T03:58:49;16.17;;;7.40;;
3155;SDS011;1588;50.892;7.082;2023-10-09T04:03:53;24.83;;;7.00;;
3155;SDS011;1588;50.892;7.082;2023-10-09T04:09:00;12.47;;;6.60;;
3155;SDS011;1588;50.892;7.082;2023-10-09T04:14:39;15.67;;;7.40;;
3155;SDS011;1588;50.892;7.082;2023-10-09T04:19:50;13.03;;;6.80;;
3155;SDS011;1588;50.892;7.082;2023-10-09T04:25:14;16.60;;;7.90;;
3155;SDS011;1588;50.892;7.082;2023-10-09T04:30:22;20.10;;;8.03;;
3155;SDS011;1588;50.892;7.082;2023-10-09T04:35:29;15.00;;;7.20;;
3155;SDS011;1588;50.892;7.082;2023-10-09T04:40:33;26.83;;;8.30;;
3155;SDS011;1588;50.892;7.082;2023-10-09T04:45:55;14.57;;;7.83;;
3155;SDS011;1588;50.892;7.082;2023-10-09T04:51:14;22.93;;;8.30;;
3155;SDS011;1588;50.892;7.082;2023-10-09T04:56:34;20.57;;;7.80;;
3155;SDS011;1588;50.892;7.082;2023-10-09T05:01:53;14.00;;;7.57;;
3155;SDS011;1588;50.892;7.082;2023-10-09T05:07:06;22.60;;;7.70;;
3155;SDS011;1588;50.892;7.082;2023-10-09T05:12:22;16.53;;;7.07;;
3155;SDS011;1588;50.892;7.082;2023-10-09T05:17:28;11.87;;;6.97;;
3155;SDS011;1588;50.892;7.082;2023-10-09T05:22:34;14.70;;;7.57;;
3155;SDS011;1588;50.892;7.082;2023-10-09T05:27:39;18.23;;;6.90;;
3155;SDS011;1588;50.892;7.082;2023-10-09T05:32:53;16.43;;;8.03;;
3155;SDS011;1588;50.892;7.082;2023-10-09T05:38:21;29.73;;;8.00;;
3155;SDS011;1588;50.892;7.082;2023-10-09T05:43:25;16.67;;;7.63;;
3155;SDS011;1588;50.892;7.082;2023-10-09T05:48:47;19.30;;;7.33;;
3155;SDS011;1588;50.892;7.082;2023-10-09T05:54:09;16.63;;;8.23;;
3155;SDS011;1588;50.892;7.082;2023-10-09T05:59:45;21.90;;;7.90;;
3155;SDS011;1588;50.892;7.082;2023-10-09T06:05:02;29.27;;;9.07;;
3155;SDS011;1588;50.892;7.082;2023-10-09T06:10:20;20.33;;;8.43;;
3155;SDS011;1588;50.892;7.082;2023-10-09T06:15:38;19.77;;;8.53;;
3155;SDS011;1588;50.892;7.082;2023-10-09T06:21:04;17.03;;;8.77;;
3155;SDS011;1588;50.892;7.082;2023-10-09T06:26:10;20.73;;;9.30;;
3155;SDS011;1588;50.892;7.082;2023-10-09T06:31:25;20.63;;;8.53;;
3155;SDS011;1588;50.892;7.082;2023-10-09T06:36:54;15.37;;;7.83;;
3155;SDS011;1588;50.892;7.082;2023-10-09T06:42:04;17.87;;;7.23;;
3155;SDS011;1588;50.892;7.082;2023-10-09T06:47:30;19.07;;;8.60;;
3155;SDS011;1588;50.892;7.082;2023-10-09T06:52:44;25.43;;;7.90;;
3155;SDS011;1588;50.892;7.082;2023-10-09T06:58:22;20.53;;;7.70;;
3155;SDS011;1588;50.892;7.082;2023-10-09T07:03:42;18.33;;;8.50;;
3155;SDS011;1588;50.892;7.082;2023-10-09T07:14:26;20.13;;;8.60;;
3155;SDS011;1588;50.892;7.082;2023-10-09T07:19:49;16.93;;;8.43;;
3155;SDS011;1588;50.892;7.082;2023-10-09T07:25:10;18.50;;;8.27;;
3155;SDS011;1588;50.892;7.082;2023-10-09T07:30:28;13.10;;;7.60;;
3155;SDS011;1588;50.892;7.082;2023-10-09T07:35:42;14.60;;;7.60;;
3155;SDS011;1588;50.892;7.082;2023-10-09T07:40:51;11.13;;;6.80;;
3155;SDS011;1588;50.892;7.082;2023-10-09T07:45:56;25.17;;;7.80;;
3155;SDS011;1588;50.892;7.082;2023-10-09T07:51:29;21.53;;;7.93;;
3155;SDS011;1588;50.892;7.082;2023-10-09T07:56:33;12.90;;;8.00;;
3155;SDS011;1588;50.892;7.082;2023-10-09T08:01:44;23.57;;;8.40;;
3155;SDS011;1588;50.892;7.082;2023-10-09T08:06:55;17.87;;;8.30;;
3155;SDS011;1588;50.892;7.082;2023-10-09T08:12:01;13.77;;;6.67;;
3155;SDS011;1588;50.892;7.082;2023-10-09T08:17:36;12.90;;;6.70;;
3155;SDS011;1588;50.892;7.082;2023-10-09T08:22:55;12.60;;;6.60;;
3155;SDS011;1588;50.892;7.082;2023-10-09T08:28:02;14.13;;;6.90;;
3155;SDS011;1588;50.892;7.082;2023-10-09T08:33:33;13.80;;;6.93;;
3155;SDS011;1588;50.892;7.082;2023-10-09T08:38:42;13.70;;;7.20;;
3155;SDS011;1588;50.892;7.082;2023-10-09T08:43:50;18.10;;;7.37;;
3155;SDS011;1588;50.892;7.082;2023-10-09T08:48:54;19.83;;;6.60;;
3155;SDS011;1588;50.892;7.082;2023-10-09T08:53:57;15.17;;;7.20;;
3155;SDS011;1588;50.892;7.082;2023-10-09T08:59:01;14.63;;;6.90;;
3155;SDS011;1588;50.892;7.082;2023-10-09T09:04:04;11.10;;;6.00;;
3155;SDS011;1588;50.892;7.082;2023-10-09T09:09:12;12.63;;;5.47;;
3155;SDS011;1588;50.892;7.082;2023-10-09T09:14:17;14.97;;;5.93;;
3155;SDS011;1588;50.892;7.082;2023-10-09T09:19:30;11.80;;;5.60;;
3155;SDS011;1588;50.892;7.082;2023-10-09T09:24:36;15.07;;;5.23;;
3155;SDS011;1588;50.892;7.082;2023-10-09T09:29:41;15.63;;;5.30;;
3155;SDS011;1588;50.892;7.082;2023-10-09T09:34:53;12.47;;;5.60;;
3155;SDS011;1588;50.892;7.082;2023-10-09T09:39:57;18.10;;;7.37;;
3155;SDS011;1588;50.892;7.082;2023-10-09T09:45:03;10.50;;;5.10;;
3155;SDS011;1588;50.892;7.082;2023-10-09T09:50:16;15.20;;;6.03;;
3155;SDS011;1588;50.892;7.082;2023-10-09T09:55:25;12.57;;;6.07;;
3155;SDS011;1588;50.892;7.082;2023-10-09T10:00:37;13.60;;;6.30;;
3155;SDS011;1588;50.892;7.082;2023-10-09T10:05:44;14.00;;;6.13;;
3155;SDS011;1588;50.892;7.082;2023-10-09T10:10:49;24.73;;;7.03;;
3155;SDS011;1588;50.892;7.082;2023-10-09T10:16:04;11.73;;;5.67;;
3155;SDS011;1588;50.892;7.082;2023-10-09T10:21:12;14.83;;;5.67;;
3155;SDS011;1588;50.892;7.082;2023-10-09T10:26:21;22.10;;;6.27;;
3155;SDS011;1588;50.892;7.082;2023-10-09T10:36:55;13.07;;;5.30;;
3155;SDS011;1588;50.892;7.082;2023-10-09T10:42:00;14.50;;;6.20;;
3155;SDS011;1588;50.892;7.082;2023-10-09T10:47:12;10.43;;;4.93;;
3155;SDS011;1588;50.892;7.082;2023-10-09T10:52:25;12.20;;;5.77;;
3155;SDS011;1588;50.892;7.082;2023-10-09T10:57:42;16.40;;;4.77;;
3155;SDS011;1588;50.892;7.082;2023-10-09T11:03:04;10.90;;;5.63;;
3155;SDS011;1588;50.892;7.082;2023-10-09T11:08:23;10.20;;;4.37;;
3155;SDS011;1588;50.892;7.082;2023-10-09T11:13:35;9.30;;;4.10;;
3155;SDS011;1588;50.892;7.082;2023-10-09T11:18:54;16.43;;;4.50;;
3155;SDS011;1588;50.892;7.082;2023-10-09T11:24:04;14.47;;;5.00;;
3155;SDS011;1588;50.892;7.082;2023-10-09T11:29:23;11.30;;;4.70;;
3155;SDS011;1588;50.892;7.082;2023-10-09T11:45:50;16.33;;;5.27;;
3155;SDS011;1588;50.892;7.082;2023-10-09T11:50:58;8.63;;;4.37;;
3155;SDS011;1588;50.892;7.082;2023-10-09T11:56:36;17.83;;;4.80;;
3155;SDS011;1588;50.892;7.082;2023-10-09T12:01:38;6.37;;;3.63;;
3155;SDS011;1588;50.892;7.082;2023-10-09T12:06:43;9.10;;;4.57;;
3155;SDS011;1588;50.892;7.082;2023-10-09T12:11:51;7.40;;;3.87;;
3155;SDS011;1588;50.892;7.082;2023-10-09T12:16:54;12.97;;;5.20;;
3155;SDS011;1588;50.892;7.082;2023-10-09T12:21:57;8.13;;;3.83;;
3155;SDS011;1588;50.892;7.082;2023-10-09T12:27:03;7.07;;;3.60;;
3155;SDS011;1588;50.892;7.082;2023-10-09T12:32:11;9.83;;;3.63;;
3155;SDS011;1588;50.892;7.082;2023-10-09T12:37:14;6.77;;;3.67;;
3155;SDS011;1588;50.892;7.082;2023-10-09T12:42:20;11.40;;;4.60;;
3155;SDS011;1588;50.892;7.082;2023-10-09T12:47:22;25.27;;;3.70;;
3155;SDS011;1588;50.892;7.082;2023-10-09T12:52:25;13.43;;;4.40;;
3155;SDS011;1588;50.892;7.082;2023-10-09T12:57:31;8.77;;;4.73;;
3155;SDS011;1588;50.892;7.082;2023-10-09T13:02:36;9.23;;;3.97;;
3155;SDS011;1588;50.892;7.082;2023-10-09T13:07:44;17.10;;;4.07;;
3155;SDS011;1588;50.892;7.082;2023-10-09T13:12:48;10.87;;;4.47;;
3155;SDS011;1588;50.892;7.082;2023-10-09T13:18:16;13.53;;;4.10;;
3155;SDS011;1588;50.892;7.082;2023-10-09T13:23:18;8.57;;;3.97;;
3155;SDS011;1588;50.892;7.082;2023-10-09T13:28:24;8.20;;;4.47;;
3155;SDS011;1588;50.892;7.082;2023-10-09T13:33:27;16.13;;;4.73;;
3155;SDS011;1588;50.892;7.082;2023-10-09T13:38:37;7.27;;;3.77;;
3155;SDS011;1588;50.892;7.082;2023-10-09T13:43:45;24.43;;;5.40;;
3155;SDS011;1588;50.892;7.082;2023-10-09T13:48:47;16.13;;;4.13;;
3155;SDS011;1588;50.892;7.082;2023-10-09T13:53:50;15.73;;;4.80;;
3155;SDS011;1588;50.892;7.082;2023-10-09T13:58:54;13.10;;;4.87;;
3155;SDS011;1588;50.892;7.082;2023-10-09T14:03:57;10.10;;;4.60;;
3155;SDS011;1588;50.892;7.082;2023-10-09T14:09:11;7.97;;;4.63;;
3155;SDS011;1588;50.892;7.082;2023-10-09T14:14:30;7.77;;;4.50;;
3155;SDS011;1588;50.892;7.082;2023-10-09T14:19:32;8.70;;;4.40;;
3155;SDS011;1588;50.892;7.082;2023-10-09T14:24:35;15.63;;;4.50;;
3155;SDS011;1588;50.892;7.082;2023-10-09T14:29:40;10.90;;;4.20;;
3155;SDS011;1588;50.892;7.082;2023-10-09T14:34:43;14.10;;;4.20;;
3155;SDS011;1588;50.892;7.082;2023-10-09T14:39:50;12.73;;;3.87;;
3155;SDS011;1588;50.892;7.082;2023-10-09T14:44:55;22.10;;;5.40;;
3155;SDS011;1588;50.892;7.082;2023-10-09T14:49:57;13.33;;;5.00;;
3155;SDS011;1588;50.892;7.082;2023-10-09T14:55:10;10.60;;;4.90;;
3155;SDS011;1588;50.892;7.082;2023-10-09T15:00:15;13.87;;;4.83;;
3155;SDS011;1588;50.892;7.082;2023-10-09T15:05:23;9.30;;;4.33;;
3155;SDS011;1588;50.892;7.082;2023-10-09T15:10:26;13.43;;;4.93;;
3155;SDS011;1588;50.892;7.082;2023-10-09T15:15:30;8.33;;;4.50;;
3155;SDS011;1588;50.892;7.082;2023-10-09T15:20:41;12.63;;;5.13;;
3155;SDS011;1588;50.892;7.082;2023-10-09T15:25:45;45.50;;;5.97;;
3155;SDS011;1588;50.892;7.082;2023-10-09T15:30:53;13.40;;;5.33;;
3155;SDS011;1588;50.892;7.082;2023-10-09T15:35:57;13.20;;;5.13;;
3155;SDS011;1588;50.892;7.082;2023-10-09T15:41:00;16.07;;;4.77;;
3155;SDS011;1588;50.892;7.082;2023-10-09T15:46:04;12.37;;;4.60;;
3155;SDS011;1588;50.892;7.082;2023-10-09T15:51:15;9.53;;;4.30;;
3155;SDS011;1588;50.892;7.082;2023-10-09T15:56:17;19.13;;;5.77;;
3155;SDS011;1588;50.892;7.082;2023-10-09T16:01:23;12.30;;;5.20;;
3155;SDS011;1588;50.892;7.082;2023-10-09T16:06:25;13.30;;;5.03;;
3155;SDS011;1588;50.892;7.082;2023-10-09T16:11:35;25.70;;;5.17;;
3155;SDS011;1588;50.892;7.082;2023-10-09T16:16:43;15.17;;;5.37;;
3155;SDS011;1588;50.892;7.082;2023-10-09T16:21:46;7.97;;;5.30;;
3155;SDS011;1588;50.892;7.082;2023-10-09T16:26:49;14.03;;;5.70;;
3155;SDS011;1588;50.892;7.082;2023-10-09T16:31:57;12.53;;;4.80;;
3155;SDS011;1588;50.892;7.082;2023-10-09T16:37:00;11.93;;;5.70;;
3155;SDS011;1588;50.892;7.082;2023-10-09T16:42:07;18.13;;;5.20;;
3155;SDS011;1588;50.892;7.082;2023-10-09T16:47:12;19.03;;;5.70;;
3155;SDS011;1588;50.892;7.082;2023-10-09T16:52:42;17.03;;;6.50;;
3155;SDS011;1588;50.892;7.082;2023-10-09T16:57:49;18.10;;;6.90;;
3155;SDS011;1588;50.892;7.082;2023-10-09T17:02:53;21.07;;;6.43;;
3155;SDS011;1588;50.892;7.082;2023-10-09T17:07:56;12.20;;;5.77;;
3155;SDS011;1588;50.892;7.082;2023-10-09T17:12:59;13.77;;;6.07;;
3155;SDS011;1588;50.892;7.082;2023-10-09T17:18:03;14.80;;;5.87;;
3155;SDS011;1588;50.892;7.082;2023-10-09T17:23:07;15.30;;;6.10;;
3155;SDS011;1588;50.892;7.082;2023-10-09T17:28:11;13.80;;;6.47;;
3155;SDS011;1588;50.892;7.082;2023-10-09T17:33:19;14.23;;;5.47;;
3155;SDS011;1588;50.892;7.082;2023-10-09T17:38:24;17.27;;;5.90;;
3155;SDS011;1588;50.892;7.082;2023-10-09T17:43:28;11.50;;;6.70;;
3155;SDS011;1588;50.892;7.082;2023-10-09T17:48:33;24.00;;;6.90;;
3155;SDS011;1588;50.892;7.082;2023-10-09T17:53:38;10.33;;;5.83;;
3155;SDS011;1588;50.892;7.082;2023-10-09T17:58:41;10.57;;;5.33;;
3155;SDS011;1588;50.892;7.082;2023-10-09T18:04:05;12.97;;;5.90;;
3155;SDS011;1588;50.892;7.082;2023-10-09T18:09:31;14.93;;;5.90;;
3155;SDS011;1588;50.892;7.082;2023-10-09T18:14:34;12.33;;;6.53;;
3155;SDS011;1588;50.892;7.082;2023-10-09T18:19:38;11.50;;;5.63;;
3155;SDS011;1588;50.892;7.082;2023-10-09T18:24:40;15.97;;;7.03;;
3155;SDS011;1588;50.892;7.082;2023-10-09T18:29:43;12.40;;;6.10;;
3155;SDS011;1588;50.892;7.082;2023-10-09T18:34:50;15.30;;;6.27;;
3155;SDS011;1588;50.892;7.082;2023-10-09T18:39:54;14.33;;;6.53;;
3155;SDS011;1588;50.892;7.082;2023-10-09T18:44:59;14.47;;;6.13;;
3155;SDS011;1588;50.892;7.082;2023-10-09T18:50:09;17.10;;;6.67;;
3155;SDS011;1588;50.892;7.082;2023-10-09T18:55:16;18.30;;;6.63;;
3155;SDS011;1588;50.892;7.082;2023-10-09T19:00:21;19.47;;;6.47;;
3155;SDS011;1588;50.892;7.082;2023-10-09T19:05:32;10.47;;;6.43;;
3155;SDS011;1588;50.892;7.082;2023-10-09T19:10:35;13.07;;;5.73;;
3155;SDS011;1588;50.892;7.082;2023-10-09T19:15:39;18.93;;;6.00;;
3155;SDS011;1588;50.892;7.082;2023-10-09T19:20:44;16.77;;;6.23;;
3155;SDS011;1588;50.892;7.082;2023-10-09T19:25:47;17.63;;;6.70;;
3155;SDS011;1588;50.892;7.082;2023-10-09T19:30:49;12.10;;;7.07;;
3155;SDS011;1588;50.892;7.082;2023-10-09T19:35:54;16.20;;;7.27;;
3155;SDS011;1588;50.892;7.082;2023-10-09T19:41:04;13.77;;;7.00;;
3155;SDS011;1588;50.892;7.082;2023-10-09T19:46:07;14.37;;;7.33;;
3155;SDS011;1588;50.892;7.082;2023-10-09T19:51:11;11.70;;;6.27;;
3155;SDS011;1588;50.892;7.082;2023-10-09T19:56:15;16.20;;;7.50;;
3155;SDS011;1588;50.892;7.082;2023-10-09T20:01:19;14.77;;;7.40;;
3155;SDS011;1588;50.892;7.082;2023-10-09T20:06:25;26.53;;;9.00;;
3155;SDS011;1588;50.892;7.082;2023-10-09T20:11:27;16.03;;;6.90;;
3155;SDS011;1588;50.892;7.082;2023-10-09T20:16:30;14.53;;;7.90;;
3155;SDS011;1588;50.892;7.082;2023-10-09T20:21:38;19.63;;;6.50;;
3155;SDS011;1588;50.892;7.082;2023-10-09T20:26:43;15.37;;;7.07;;
3155;SDS011;1588;50.892;7.082;2023-10-09T20:31:46;12.93;;;6.57;;
3155;SDS011;1588;50.892;7.082;2023-10-09T20:36:51;13.73;;;7.17;;
3155;SDS011;1588;50.892;7.082;2023-10-09T20:41:58;18.50;;;7.30;;
3155;SDS011;1588;50.892;7.082;2023-10-09T20:47:01;18.40;;;7.83;;
3155;SDS011;1588;50.892;7.082;2023-10-09T20:52:05;18.00;;;8.43;;
3155;SDS011;1588;50.892;7.082;2023-10-09T20:57:08;10.70;;;6.27;;
3155;SDS011;1588;50.892;7.082;2023-10-09T21:02:10;15.80;;;7.97;;
3155;SDS011;1588;50.892;7.082;2023-10-09T21:07:14;14.63;;;7.70;;
3155;SDS011;1588;50.892;7.082;2023-10-09T21:12:18;15.17;;;7.77;;
3155;SDS011;1588;50.892;7.082;2023-10-09T21:17:21;13.60;;;7.40;;
3155;SDS011;1588;50.892;7.082;2023-10-09T21:22:25;16.37;;;8.30;;
3155;SDS011;1588;50.892;7.082;2023-10-09T21:27:32;12.33;;;7.03;;
3155;SDS011;1588;50.892;7.082;2023-10-09T21:32:37;16.80;;;7.47;;
3155;SDS011;1588;50.892;7.082;2023-10-09T21:37:42;11.67;;;6.40;;
3155;SDS011;1588;50.892;7.082;2023-10-09T21:42:46;17.70;;;8.07;;
3155;SDS011;1588;50.892;7.082;2023-10-09T21:47:50;18.10;;;8.03;;
3155;SDS011;1588;50.892;7.082;2023-10-09T21:52:57;15.50;;;7.70;;
3155;SDS011;1588;50.892;7.082;2023-10-09T21:58:00;13.80;;;7.40;;
3155;SDS011;1588;50.892;7.082;2023-10-09T22:03:04;24.93;;;7.70;;
3155;SDS011;1588;50.892;7.082;2023-10-09T22:08:11;15.93;;;7.47;;
3155;SDS011;1588;50.892;7.082;2023-10-09T22:13:14;19.30;;;6.97;;
3155;SDS011;1588;50.892;7.082;2023-10-09T22:18:19;21.00;;;7.03;;
3155;SDS011;1588;50.892;7.082;2023-10-09T22:23:23;13.57;;;7.43;;
3155;SDS011;1588;50.892;7.082;2023-10-09T22:28:32;18.90;;;7.93;;
3155;SDS011;1588;50.892;7.082;2023-10-09T22:33:34;22.23;;;7.10;;
3155;SDS011;1588;50.892;7.082;2023-10-09T22:38:51;14.03;;;7.17;;
3155;SDS011;1588;50.892;7.082;2023-10-09T22:43:55;18.60;;;7.33;;
3155;SDS011;1588;50.892;7.082;2023-10-09T22:48:58;17.23;;;7.63;;
3155;SDS011;1588;50.892;7.082;2023-10-09T22:54:15;16.20;;;7.30;;
3155;SDS011;1588;50.892;7.082;2023-10-09T22:59:23;12.63;;;6.73;;
3155;SDS011;1588;50.892;7.082;2023-10-09T23:04:27;12.70;;;7.10;;
3155;SDS011;1588;50.892;7.082;2023-10-09T23:09:39;13.60;;;7.40;;
3155;SDS011;1588;50.892;7.082;2023-10-09T23:14:50;14.70;;;7.30;;
3155;SDS011;1588;50.892;7.082;2023-10-09T23:19:53;35.53;;;7.10;;
3155;SDS011;1588;50.892;7.082;2023-10-09T23:24:58;15.27;;;6.67;;
3155;SDS011;1588;50.892;7.082;2023-10-09T23:30:09;15.90;;;7.87;;
3155;SDS011;1588;50.892;7.082;2023-10-09T23:35:15;15.27;;;7.10;;
3155;SDS011;1588;50.892;7.082;2023-10-09T23:40:23;17.10;;;7.77;;
3155;SDS011;1588;50.892;7.082;2023-10-09T23:45:39;14.23;;;7.33;;
3155;SDS011;1588;50.892;7.082;2023-10-09T23:50:42;15.97;;;8.10;;
3155;SDS011;1588;50.892;7.082;2023-10-09T23:55:50;15.43;;;7.60;;
